sensor_id;sensor_type;location;lat;lon;timestamp;temperature;humidity
49379;DHT22;35254;47.990;-1.608;2022-07-03T00:01:09;16.20;62.50
49379;DHT22;35254;47.990;-1.608;2022-07-03T00:03:34;16.10;62.60
49379;DHT22;35254;47.990;-1.608;2022-07-03T00:06:00;16.10;63.00
49379;DHT22;35254;47.990;-1.608;2022-07-03T00:08:25;16.00;63.10
49379;DHT22;35254;47.990;-1.608;2022-07-03T00:10:51;16.00;63.20
49379;DHT22;35254;47.990;-1.608;2022-07-03T00:13:17;15.90;63.00
49379;DHT22;35254;47.990;-1.608;2022-07-03T00:15:42;15.90;63.30
49379;DHT22;35254;47.990;-1.608;2022-07-03T00:18:09;15.70;63.40
49379;DHT22;35254;47.990;-1.608;2022-07-03T00:20:39;15.80;64.30
49379;DHT22;35254;47.990;-1.608;2022-07-03T00:23:09;15.80;64.50
49379;DHT22;35254;47.990;-1.608;2022-07-03T00:25:36;15.70;63.80
49379;DHT22;35254;47.990;-1.608;2022-07-03T00:28:02;15.70;64.00
49379;DHT22;35254;47.990;-1.608;2022-07-03T00:30:28;15.70;64.00
49379;DHT22;35254;47.990;-1.608;2022-07-03T00:32:54;15.60;64.20
49379;DHT22;35254;47.990;-1.608;2022-07-03T00:35:20;15.60;64.40
49379;DHT22;35254;47.990;-1.608;2022-07-03T00:37:46;15.50;64.30
49379;DHT22;35254;47.990;-1.608;2022-07-03T00:40:12;15.40;64.20
49379;DHT22;35254;47.990;-1.608;2022-07-03T00:42:38;15.30;64.20
49379;DHT22;35254;47.990;-1.608;2022-07-03T00:45:07;15.20;64.30
49379;DHT22;35254;47.990;-1.608;2022-07-03T00:47:36;15.20;64.50
49379;DHT22;35254;47.990;-1.608;2022-07-03T00:50:07;15.10;64.70
49379;DHT22;35254;47.990;-1.608;2022-07-03T00:52:33;15.00;64.40
49379;DHT22;35254;47.990;-1.608;2022-07-03T00:55:01;14.90;64.40
49379;DHT22;35254;47.990;-1.608;2022-07-03T00:57:31;14.80;64.60
49379;DHT22;35254;47.990;-1.608;2022-07-03T00:59:57;14.70;64.70
49379;DHT22;35254;47.990;-1.608;2022-07-03T01:17:02;14.30;65.10
49379;DHT22;35254;47.990;-1.608;2022-07-03T01:19:42;14.20;65.40
49379;DHT22;35254;47.990;-1.608;2022-07-03T01:22:33;14.10;65.70
49379;DHT22;35254;47.990;-1.608;2022-07-03T01:30:32;14.00;65.70
49379;DHT22;35254;47.990;-1.608;2022-07-03T01:33:04;14.00;65.90
49379;DHT22;35254;47.990;-1.608;2022-07-03T01:35:36;13.90;66.00
49379;DHT22;35254;47.990;-1.608;2022-07-03T01:38:10;13.90;65.90
49379;DHT22;35254;47.990;-1.608;2022-07-03T01:40:39;13.80;65.90
49379;DHT22;35254;47.990;-1.608;2022-07-03T01:43:08;13.70;66.10
49379;DHT22;35254;47.990;-1.608;2022-07-03T01:45:39;13.70;66.10
49379;DHT22;35254;47.990;-1.608;2022-07-03T01:48:07;13.70;66.40
49379;DHT22;35254;47.990;-1.608;2022-07-03T01:50:33;13.60;66.30
49379;DHT22;35254;47.990;-1.608;2022-07-03T01:53:01;13.50;66.20
49379;DHT22;35254;47.990;-1.608;2022-07-03T01:55:30;13.50;66.40
49379;DHT22;35254;47.990;-1.608;2022-07-03T01:57:57;13.40;66.40
49379;DHT22;35254;47.990;-1.608;2022-07-03T02:00:23;13.40;66.40
49379;DHT22;35254;47.990;-1.608;2022-07-03T02:03:03;13.40;66.40
49379;DHT22;35254;47.990;-1.608;2022-07-03T02:10:41;13.20;66.70
49379;DHT22;35254;47.990;-1.608;2022-07-03T02:13:17;13.20;66.70
49379;DHT22;35254;47.990;-1.608;2022-07-03T02:15:45;13.10;66.80
49379;DHT22;35254;47.990;-1.608;2022-07-03T02:18:36;13.10;67.30
49379;DHT22;35254;47.990;-1.608;2022-07-03T02:23:31;13.10;67.20
49379;DHT22;35254;47.990;-1.608;2022-07-03T02:26:03;13.10;67.20
49379;DHT22;35254;47.990;-1.608;2022-07-03T02:28:59;13.10;67.30
49379;DHT22;35254;47.990;-1.608;2022-07-03T02:31:27;13.10;67.70
49379;DHT22;35254;47.990;-1.608;2022-07-03T02:33:57;13.10;67.60
49379;DHT22;35254;47.990;-1.608;2022-07-03T02:36:27;13.10;67.70
49379;DHT22;35254;47.990;-1.608;2022-07-03T02:38:56;13.10;67.60
49379;DHT22;35254;47.990;-1.608;2022-07-03T02:41:27;13.10;67.80
49379;DHT22;35254;47.990;-1.608;2022-07-03T02:44:28;13.00;67.60
49379;DHT22;35254;47.990;-1.608;2022-07-03T02:50:08;12.90;67.70
49379;DHT22;35254;47.990;-1.608;2022-07-03T02:58:05;12.70;67.90
49379;DHT22;35254;47.990;-1.608;2022-07-03T03:00:37;12.70;67.90
49379;DHT22;35254;47.990;-1.608;2022-07-03T03:03:04;12.70;67.90
49379;DHT22;35254;47.990;-1.608;2022-07-03T03:05:49;12.60;68.00
49379;DHT22;35254;47.990;-1.608;2022-07-03T03:11:01;12.50;68.20
49379;DHT22;35254;47.990;-1.608;2022-07-03T03:13:31;12.50;68.20
49379;DHT22;35254;47.990;-1.608;2022-07-03T03:18:28;12.60;69.20
49379;DHT22;35254;47.990;-1.608;2022-07-03T03:20:59;12.70;69.70
49379;DHT22;35254;47.990;-1.608;2022-07-03T03:23:50;12.80;69.40
49379;DHT22;35254;47.990;-1.608;2022-07-03T03:26:24;12.80;69.40
49379;DHT22;35254;47.990;-1.608;2022-07-03T03:28:51;12.90;69.30
49379;DHT22;35254;47.990;-1.608;2022-07-03T03:31:18;12.90;69.20
49379;DHT22;35254;47.990;-1.608;2022-07-03T03:33:46;12.90;69.20
49379;DHT22;35254;47.990;-1.608;2022-07-03T03:36:14;12.90;69.10
49379;DHT22;35254;47.990;-1.608;2022-07-03T03:38:41;12.90;69.00
49379;DHT22;35254;47.990;-1.608;2022-07-03T03:41:07;12.80;69.10
49379;DHT22;35254;47.990;-1.608;2022-07-03T03:43:33;12.70;68.90
49379;DHT22;35254;47.990;-1.608;2022-07-03T03:46:00;12.70;68.80
49379;DHT22;35254;47.990;-1.608;2022-07-03T03:48:26;12.60;68.90
49379;DHT22;35254;47.990;-1.608;2022-07-03T03:50:52;12.50;69.00
49379;DHT22;35254;47.990;-1.608;2022-07-03T03:53:19;12.40;68.90
49379;DHT22;35254;47.990;-1.608;2022-07-03T03:58:35;12.20;69.20
49379;DHT22;35254;47.990;-1.608;2022-07-03T04:01:03;12.20;69.20
49379;DHT22;35254;47.990;-1.608;2022-07-03T04:03:29;12.10;69.20
49379;DHT22;35254;47.990;-1.608;2022-07-03T04:05:55;12.00;69.20
49379;DHT22;35254;47.990;-1.608;2022-07-03T04:08:22;11.90;69.20
49379;DHT22;35254;47.990;-1.608;2022-07-03T04:10:48;11.90;69.20
49379;DHT22;35254;47.990;-1.608;2022-07-03T04:13:15;11.80;69.40
49379;DHT22;35254;47.990;-1.608;2022-07-03T04:15:40;11.70;69.40
49379;DHT22;35254;47.990;-1.608;2022-07-03T04:18:06;11.70;69.60
49379;DHT22;35254;47.990;-1.608;2022-07-03T04:20:32;11.70;69.50
49379;DHT22;35254;47.990;-1.608;2022-07-03T04:22:59;11.70;69.70
49379;DHT22;35254;47.990;-1.608;2022-07-03T04:25:25;11.70;69.80
49379;DHT22;35254;47.990;-1.608;2022-07-03T04:27:51;11.70;69.90
49379;DHT22;35254;47.990;-1.608;2022-07-03T04:30:17;11.70;69.80
49379;DHT22;35254;47.990;-1.608;2022-07-03T04:32:42;11.70;70.00
49379;DHT22;35254;47.990;-1.608;2022-07-03T04:35:08;11.70;70.10
49379;DHT22;35254;47.990;-1.608;2022-07-03T04:37:34;11.70;70.20
49379;DHT22;35254;47.990;-1.608;2022-07-03T04:40:00;11.70;70.30
49379;DHT22;35254;47.990;-1.608;2022-07-03T04:42:25;11.70;70.30
49379;DHT22;35254;47.990;-1.608;2022-07-03T04:44:51;11.70;70.50
49379;DHT22;35254;47.990;-1.608;2022-07-03T04:47:17;11.70;70.50
49379;DHT22;35254;47.990;-1.608;2022-07-03T04:49:42;11.70;70.60
49379;DHT22;35254;47.990;-1.608;2022-07-03T04:52:09;11.70;70.60
49379;DHT22;35254;47.990;-1.608;2022-07-03T04:54:35;11.70;70.60
49379;DHT22;35254;47.990;-1.608;2022-07-03T04:57:01;11.80;71.00
49379;DHT22;35254;47.990;-1.608;2022-07-03T04:59:27;11.80;71.40
49379;DHT22;35254;47.990;-1.608;2022-07-03T05:01:53;11.90;71.50
49379;DHT22;35254;47.990;-1.608;2022-07-03T05:04:18;12.00;71.40
49379;DHT22;35254;47.990;-1.608;2022-07-03T05:06:44;12.10;71.40
49379;DHT22;35254;47.990;-1.608;2022-07-03T05:09:10;12.10;71.70
49379;DHT22;35254;47.990;-1.608;2022-07-03T05:11:36;12.20;71.80
49379;DHT22;35254;47.990;-1.608;2022-07-03T05:14:05;12.30;72.70
49379;DHT22;35254;47.990;-1.608;2022-07-03T05:16:31;12.40;72.80
49379;DHT22;35254;47.990;-1.608;2022-07-03T05:18:57;12.50;73.40
49379;DHT22;35254;47.990;-1.608;2022-07-03T05:21:22;12.70;73.90
49379;DHT22;35254;47.990;-1.608;2022-07-03T05:23:48;12.90;73.50
49379;DHT22;35254;47.990;-1.608;2022-07-03T05:26:14;13.10;74.10
49379;DHT22;35254;47.990;-1.608;2022-07-03T05:28:40;13.30;74.40
49379;DHT22;35254;47.990;-1.608;2022-07-03T05:31:06;13.50;74.60
49379;DHT22;35254;47.990;-1.608;2022-07-03T05:33:32;13.60;74.50
49379;DHT22;35254;47.990;-1.608;2022-07-03T05:35:58;13.70;74.90
49379;DHT22;35254;47.990;-1.608;2022-07-03T05:38:24;13.90;74.30
49379;DHT22;35254;47.990;-1.608;2022-07-03T05:41:09;14.00;74.60
49379;DHT22;35254;47.990;-1.608;2022-07-03T05:43:35;14.10;74.60
49379;DHT22;35254;47.990;-1.608;2022-07-03T05:46:00;14.10;74.80
49379;DHT22;35254;47.990;-1.608;2022-07-03T05:48:26;14.20;74.60
49379;DHT22;35254;47.990;-1.608;2022-07-03T05:50:52;14.20;74.40
49379;DHT22;35254;47.990;-1.608;2022-07-03T05:53:18;14.30;74.80
49379;DHT22;35254;47.990;-1.608;2022-07-03T05:55:43;14.40;75.30
49379;DHT22;35254;47.990;-1.608;2022-07-03T05:58:09;14.40;75.40
49379;DHT22;35254;47.990;-1.608;2022-07-03T06:00:35;14.50;74.90
49379;DHT22;35254;47.990;-1.608;2022-07-03T06:03:00;14.50;75.20
49379;DHT22;35254;47.990;-1.608;2022-07-03T06:05:28;14.70;75.10
49379;DHT22;35254;47.990;-1.608;2022-07-03T06:07:54;14.70;75.10
49379;DHT22;35254;47.990;-1.608;2022-07-03T06:10:20;14.80;75.60
49379;DHT22;35254;47.990;-1.608;2022-07-03T06:12:46;14.90;75.30
49379;DHT22;35254;47.990;-1.608;2022-07-03T06:15:11;15.00;75.50
49379;DHT22;35254;47.990;-1.608;2022-07-03T06:17:37;15.00;75.30
49379;DHT22;35254;47.990;-1.608;2022-07-03T06:20:04;15.10;75.40
49379;DHT22;35254;47.990;-1.608;2022-07-03T06:22:30;15.20;75.40
49379;DHT22;35254;47.990;-1.608;2022-07-03T06:24:55;15.20;75.40
49379;DHT22;35254;47.990;-1.608;2022-07-03T06:27:21;15.20;75.60
49379;DHT22;35254;47.990;-1.608;2022-07-03T06:29:47;15.30;75.30
49379;DHT22;35254;47.990;-1.608;2022-07-03T06:32:15;15.40;75.10
49379;DHT22;35254;47.990;-1.608;2022-07-03T06:34:41;15.40;75.60
49379;DHT22;35254;47.990;-1.608;2022-07-03T06:37:11;15.60;75.30
49379;DHT22;35254;47.990;-1.608;2022-07-03T06:39:38;15.60;75.00
49379;DHT22;35254;47.990;-1.608;2022-07-03T06:42:04;15.70;75.00
49379;DHT22;35254;47.990;-1.608;2022-07-03T06:44:29;15.70;75.10
49379;DHT22;35254;47.990;-1.608;2022-07-03T06:46:55;15.80;75.10
49379;DHT22;35254;47.990;-1.608;2022-07-03T06:49:21;15.80;75.00
49379;DHT22;35254;47.990;-1.608;2022-07-03T06:51:47;15.90;75.20
49379;DHT22;35254;47.990;-1.608;2022-07-03T06:54:13;16.10;75.00
49379;DHT22;35254;47.990;-1.608;2022-07-03T06:56:38;16.10;74.80
49379;DHT22;35254;47.990;-1.608;2022-07-03T06:59:04;16.10;74.40
49379;DHT22;35254;47.990;-1.608;2022-07-03T07:01:30;16.20;75.30
49379;DHT22;35254;47.990;-1.608;2022-07-03T07:03:55;16.20;74.50
49379;DHT22;35254;47.990;-1.608;2022-07-03T07:06:22;16.30;74.80
49379;DHT22;35254;47.990;-1.608;2022-07-03T07:08:47;16.40;74.60
49379;DHT22;35254;47.990;-1.608;2022-07-03T07:11:13;16.60;74.70
49379;DHT22;35254;47.990;-1.608;2022-07-03T07:13:39;16.60;74.70
49379;DHT22;35254;47.990;-1.608;2022-07-03T07:16:05;16.70;74.40
49379;DHT22;35254;47.990;-1.608;2022-07-03T07:18:30;16.80;74.70
49379;DHT22;35254;47.990;-1.608;2022-07-03T07:20:56;16.90;74.50
49379;DHT22;35254;47.990;-1.608;2022-07-03T07:23:22;17.00;73.50
49379;DHT22;35254;47.990;-1.608;2022-07-03T07:25:47;17.00;73.80
49379;DHT22;35254;47.990;-1.608;2022-07-03T07:28:13;17.00;73.60
49379;DHT22;35254;47.990;-1.608;2022-07-03T07:30:39;17.10;73.60
49379;DHT22;35254;47.990;-1.608;2022-07-03T07:33:06;17.10;72.80
49379;DHT22;35254;47.990;-1.608;2022-07-03T07:35:31;17.10;72.40
49379;DHT22;35254;47.990;-1.608;2022-07-03T07:37:57;17.20;72.30
49379;DHT22;35254;47.990;-1.608;2022-07-03T07:40:23;17.20;72.60
49379;DHT22;35254;47.990;-1.608;2022-07-03T07:42:48;17.20;72.70
49379;DHT22;35254;47.990;-1.608;2022-07-03T07:45:14;17.40;73.00
49379;DHT22;35254;47.990;-1.608;2022-07-03T07:47:40;17.50;72.40
49379;DHT22;35254;47.990;-1.608;2022-07-03T07:50:06;17.50;72.30
49379;DHT22;35254;47.990;-1.608;2022-07-03T07:52:32;17.70;71.30
49379;DHT22;35254;47.990;-1.608;2022-07-03T07:54:57;17.70;71.50
49379;DHT22;35254;47.990;-1.608;2022-07-03T07:57:23;17.80;70.80
49379;DHT22;35254;47.990;-1.608;2022-07-03T07:59:48;17.80;71.40
49379;DHT22;35254;47.990;-1.608;2022-07-03T08:02:14;17.90;71.20
49379;DHT22;35254;47.990;-1.608;2022-07-03T08:04:58;17.90;70.90
49379;DHT22;35254;47.990;-1.608;2022-07-03T08:07:42;18.00;70.70
49379;DHT22;35254;47.990;-1.608;2022-07-03T08:10:08;18.20;71.20
49379;DHT22;35254;47.990;-1.608;2022-07-03T08:12:34;18.30;71.40
49379;DHT22;35254;47.990;-1.608;2022-07-03T08:14:59;18.40;71.60
49379;DHT22;35254;47.990;-1.608;2022-07-03T08:17:25;18.60;70.40
49379;DHT22;35254;47.990;-1.608;2022-07-03T08:19:51;18.80;70.20
49379;DHT22;35254;47.990;-1.608;2022-07-03T08:22:16;19.00;69.60
49379;DHT22;35254;47.990;-1.608;2022-07-03T08:24:42;19.40;71.00
49379;DHT22;35254;47.990;-1.608;2022-07-03T08:27:07;20.20;72.00
49379;DHT22;35254;47.990;-1.608;2022-07-03T08:29:33;21.60;67.00
49379;DHT22;35254;47.990;-1.608;2022-07-03T08:31:59;23.10;65.30
49379;DHT22;35254;47.990;-1.608;2022-07-03T08:34:24;24.40;65.20
49379;DHT22;35254;47.990;-1.608;2022-07-03T08:36:50;25.40;63.50
49379;DHT22;35254;47.990;-1.608;2022-07-03T08:39:15;25.00;54.10
49379;DHT22;35254;47.990;-1.608;2022-07-03T08:41:41;24.00;55.00
49379;DHT22;35254;47.990;-1.608;2022-07-03T08:44:12;24.20;56.70
49379;DHT22;35254;47.990;-1.608;2022-07-03T08:46:39;25.30;54.30
49379;DHT22;35254;47.990;-1.608;2022-07-03T08:49:06;26.20;51.90
49379;DHT22;35254;47.990;-1.608;2022-07-03T08:51:32;25.10;48.90
49379;DHT22;35254;47.990;-1.608;2022-07-03T08:54:00;24.60;50.50
49379;DHT22;35254;47.990;-1.608;2022-07-03T08:56:29;23.90;51.00
49379;DHT22;35254;47.990;-1.608;2022-07-03T08:58:57;24.60;55.20
49379;DHT22;35254;47.990;-1.608;2022-07-03T09:01:24;26.20;53.00
49379;DHT22;35254;47.990;-1.608;2022-07-03T09:03:51;25.90;47.10
49379;DHT22;35254;47.990;-1.608;2022-07-03T09:06:17;25.10;46.70
49379;DHT22;35254;47.990;-1.608;2022-07-03T09:08:43;24.30;48.60
49379;DHT22;35254;47.990;-1.608;2022-07-03T09:11:10;24.60;53.40
49379;DHT22;35254;47.990;-1.608;2022-07-03T09:13:36;25.80;49.10
49379;DHT22;35254;47.990;-1.608;2022-07-03T09:16:01;25.30;45.70
49379;DHT22;35254;47.990;-1.608;2022-07-03T09:18:42;24.60;47.90
49379;DHT22;35254;47.990;-1.608;2022-07-03T09:21:08;25.80;51.70
49379;DHT22;35254;47.990;-1.608;2022-07-03T09:23:38;27.50;46.50
49379;DHT22;35254;47.990;-1.608;2022-07-03T09:26:04;28.70;45.80
49379;DHT22;35254;47.990;-1.608;2022-07-03T09:31:15;29.10;38.60
49379;DHT22;35254;47.990;-1.608;2022-07-03T09:33:51;28.30;41.60
49379;DHT22;35254;47.990;-1.608;2022-07-03T09:36:17;28.10;41.60
49379;DHT22;35254;47.990;-1.608;2022-07-03T09:38:44;27.00;39.50
49379;DHT22;35254;47.990;-1.608;2022-07-03T09:41:10;26.10;42.00
49379;DHT22;35254;47.990;-1.608;2022-07-03T09:43:41;27.30;43.50
49379;DHT22;35254;47.990;-1.608;2022-07-03T09:46:07;27.50;39.90
49379;DHT22;35254;47.990;-1.608;2022-07-03T09:48:35;27.20;41.60
49379;DHT22;35254;47.990;-1.608;2022-07-03T09:51:27;27.00;40.90
49379;DHT22;35254;47.990;-1.608;2022-07-03T09:56:26;26.60;40.10
49379;DHT22;35254;47.990;-1.608;2022-07-03T09:59:13;26.00;40.40
49379;DHT22;35254;47.990;-1.608;2022-07-03T10:01:43;25.90;42.80
49379;DHT22;35254;47.990;-1.608;2022-07-03T10:09:16;26.90;42.40
49379;DHT22;35254;47.990;-1.608;2022-07-03T10:11:43;27.50;41.10
49379;DHT22;35254;47.990;-1.608;2022-07-03T10:14:12;27.20;40.20
49379;DHT22;35254;47.990;-1.608;2022-07-03T10:16:39;26.70;39.60
49379;DHT22;35254;47.990;-1.608;2022-07-03T10:19:06;26.20;39.00
49379;DHT22;35254;47.990;-1.608;2022-07-03T10:21:34;26.30;42.20
49379;DHT22;35254;47.990;-1.608;2022-07-03T10:24:02;27.80;44.30
49379;DHT22;35254;47.990;-1.608;2022-07-03T10:26:28;29.30;41.30
49379;DHT22;35254;47.990;-1.608;2022-07-03T10:28:55;29.10;38.50
49379;DHT22;35254;47.990;-1.608;2022-07-03T10:31:23;28.20;37.30
49379;DHT22;35254;47.990;-1.608;2022-07-03T10:33:51;27.90;38.90
49379;DHT22;35254;47.990;-1.608;2022-07-03T10:36:17;27.60;38.80
49379;DHT22;35254;47.990;-1.608;2022-07-03T10:38:46;27.10;38.60
49379;DHT22;35254;47.990;-1.608;2022-07-03T10:44:06;26.60;38.80
49379;DHT22;35254;47.990;-1.608;2022-07-03T10:46:50;27.00;42.20
49379;DHT22;35254;47.990;-1.608;2022-07-03T10:49:15;28.40;41.10
49379;DHT22;35254;47.990;-1.608;2022-07-03T10:54:31;28.70;37.60
49379;DHT22;35254;47.990;-1.608;2022-07-03T11:08:02;26.80;38.80
49379;DHT22;35254;47.990;-1.608;2022-07-03T11:10:29;26.90;39.40
49379;DHT22;35254;47.990;-1.608;2022-07-03T11:12:59;27.10;40.30
49379;DHT22;35254;47.990;-1.608;2022-07-03T11:18:08;27.20;39.00
49379;DHT22;35254;47.990;-1.608;2022-07-03T11:20:37;27.20;39.50
49379;DHT22;35254;47.990;-1.608;2022-07-03T11:26:01;27.50;39.40
